• Join FlightAware (Why Join?)
  • Login
  • US Flag 
 
10:44AM EST


 

Airport Tracker/Info


-or-


 

Live Flight TrackerFlight Track Log ✈ AWI3725 ✈ 01-May-2014 ✈ KSDF - KDCA

Flight Track Log - Related Links

Times and Time Zones

All times are in EDT time to prevent confusion due to time zone crossing. See the AWI3725 flight status page for this flight to view local times or setup timezone preferences in your user account.

Time Position Orientation Groundspeed Altitude Reporting Facility
EDT Latitude Longitude Course Direction KTS MPH feet Rate Location/Type
01:27PM 38.0986 -85.7244 98° East 187 215 5,100  Level Indianapolis Center
01:28PM 38.0400 -85.6875 154° Southeast 229 264 7,400 2,340 Climbing Indianapolis Center
01:29PM 38.0358 -85.5833 93° East 291 335 10,000 2,340 Climbing Indianapolis Center
01:30PM 38.0483 -85.4686 82° East 318 366 12,300 2,160 Climbing Indianapolis Center
01:31PM 38.0269 -85.0383 100° East  Level FlightAware Approximate
01:31PM 38.0581 -85.3436 84° East 346 398 14,500  Level Indianapolis Center
01:32PM 38.0103 -84.9083 98° East  Level FlightAware Approximate
01:32PM 38.0739 -85.1933 82° East 378 435 16,800  Level Indianapolis Center
01:33PM 38.0869 -85.0517 83° East 398 458 18,800 1,800 Climbing Indianapolis Center
01:34PM 38.1011 -84.9039 83° East 412 474 20,600 1,740 Climbing Indianapolis Center
01:35PM 38.1172 -84.7286 83° East 422 486 22,400 1,320 Climbing Indianapolis Center
01:36PM 38.1317 -84.5722 83° East 440 506 23,400 1,200 Climbing Indianapolis Center
01:37PM 38.1456 -84.4119 84° East 449 517 25,000 1,260 Climbing Indianapolis Center
01:38PM 38.1594 -84.2508 84° East 452 520 26,100 1,020 Climbing Indianapolis Center
01:39PM 38.1742 -84.0833 84° East 468 539 27,200 900 Climbing Indianapolis Center
01:40PM 38.1908 -83.8808 84° East 486 559 28,000 720 Climbing Indianapolis Center
01:41PM 38.2061 -83.7017 84° East 499 574 28,800 480 Climbing Indianapolis Center
01:42PM 38.2206 -83.5217 84° East 505 581 29,000 60 Climbing Indianapolis Center
01:43PM 38.2350 -83.3417 84° East 509 586 29,000  Level Indianapolis Center
01:44PM 38.2492 -83.1611 84° East 509 586 29,000  Level Indianapolis Center
01:45PM 38.2636 -82.9822 84° East 509 586 29,000  Level Indianapolis Center
01:46PM 38.2792 -82.7725 85° East 509 586 29,000  Level Indianapolis Center
01:48PM 38.2922 -82.5953 85° East 508 585 29,000  Level Indianapolis Center
01:49PM 38.3050 -82.4189 85° East 507 583 29,000  Level Indianapolis Center
01:50PM 38.3183 -82.2425 84° East 506 582 29,000  Level Indianapolis Center
01:51PM 38.3297 -82.0658 85° East 504 580 29,000  Level Indianapolis Center
01:52PM 38.3439 -81.8575 85° East 502 578 29,000  Level Indianapolis Center
01:53PM 38.3467 -81.6836 89° East 498 573 29,000  Level Indianapolis Center
01:54PM 38.3406 -81.5128 93° East 493 567 29,000  Level Indianapolis Center
01:55PM 38.3356 -81.3408 92° East 493 567 29,000  Level Indianapolis Center
01:56PM 38.3292 -81.1689 93° East 493 567 29,000  Level Indianapolis Center
01:57PM 38.3217 -80.9628 93° East 492 566 29,000  Level Indianapolis Center
01:58PM 38.3158 -80.7892 92° East 492 566 29,000  Level Indianapolis Center
01:59PM 38.3097 -80.6172 93° East 491 565 29,000  Level Indianapolis Center
01:59PM 38.3072 -80.5322 92° East 482 555 29,000  Level Washington Center
02:01PM 38.3228 -80.3558 84° East 482 555 29,000  Level Washington Center
02:01PM 38.3469 -80.1586 81° East 501 577 29,000  Level Washington Center
02:02PM 38.3683 -79.9800 81° East 506 582 29,000  Level Washington Center
02:04PM 38.3897 -79.7906 82° East 516 594 29,000  Level Washington Center
02:05PM 38.4106 -79.6061 82° East 521 600 29,000  Level Washington Center
02:05PM 38.4314 -79.4192 82° East 531 611 29,000 -600 Level Washington Center
02:07PM 38.4492 -79.2503 82° East 536 617 27,900 -1,380 Descending Washington Center
02:08PM 38.4692 -79.0683 82° East 531 611 26,300 -1,860 Descending Washington Center
02:08PM 38.4953 -78.8758 80° East 510 587 24,300 -1,980 Descending Washington Center
02:09PM 38.5228 -78.7125 78° East 491 565 22,400 -1,920 Descending Washington Center
02:11PM 38.5478 -78.5489 79° East 477 549 20,500 -1,800 Descending Washington Center
02:12PM 38.5722 -78.3906 79° East 460 529 18,800 -1,800 Descending Washington Center
02:12PM 38.6028 -78.2350 76° East 455 524 17,000 -1,680 Descending Washington Center
02:13PM 38.6478 -78.0931 68° East 435 501 15,600 -1,560 Descending Washington Center
02:14PM 38.6900 -77.9589 68° East 419 482 13,900 -1,560 Descending Washington Center
02:16PM 38.7464 -77.8489 57° Northeast 372 428 12,500 -1,380 Descending Washington Center
02:17PM 38.8186 -77.7683 41° Northeast 358 412 11,100 -780 Descending Washington Center
02:18PM 38.8642 -77.6764 58° Northeast 344 396 11,000 -1,260 Descending Washington Center
02:18PM 38.9167 -77.5667 58° Northeast 311 358 8,700 -1,560 Descending Potomac TRACON
02:19PM 38.9167 -77.4833 90° East 285 328 8,000 -600 Descending Potomac TRACON
02:20PM 38.9000 -77.4000 104° East 236 272 7,500 -600 Descending Potomac TRACON
02:21PM 38.8667 -77.3167 117° Southeast 223 257 6,800 -720 Descending Potomac TRACON
02:23PM 38.8667 -77.2333 90° East 228 262 6,000 -420 Descending Potomac TRACON
02:24PM 38.9000 -77.2667 322° Northwest 227 261 6,000  Level Potomac TRACON
02:25PM 38.9333 -77.3167 311° West 174 200 6,100 -480 Climbing Potomac TRACON
02:26PM 38.9833 -77.3500 333° Northwest 205 236 5,100 -540 Descending Potomac TRACON
02:27PM 39.0167 -77.3000 49° Northeast 203 234 5,100 -780 Level Potomac TRACON
02:28PM 39.0000 -77.2333 108° East 200 230 3,600 -960 Descending Potomac TRACON
02:29PM 38.9833 -77.1833 113° Southeast 163 188 3,200 -720 Descending Potomac TRACON
02:30PM 38.9500 -77.1333 131° Southeast 157 181 2,200 -900 Descending Potomac TRACON
02:31PM 38.9167 -77.1000 142° Southeast 151 174 1,400 -780 Descending Potomac TRACON
02:32PM 38.8833 -77.0667 142° Southeast 130 150 700 -720 Descending Potomac TRACON